Amherst, New Hampshire
Current Conditions -  °F | °C
As of 12:51 PM on Friday 31 Oct 2014 (Local Time) from KASH Reporting Station
Broken Clouds Broken Clouds  
Wind Chill: 10°   Ceiling: 5500
Heat Index: 10°   Visibility: 10mi
Dew Point:   Wind: 0mph
Humidity: 54%   Direction: NA
Pressure: 30.02"   Gusts: NA
Location:  42.86°N, 71.63°W
Report Text: KASH 311651Z 00000KT 10SM BKN055 10/01 A3002 RMK AO2 T01000011 BKN V OVC SLP417
Loading
Personal Weather Stations






























Interactive Weather Map
Tropical Storm Tracking
New forecast layout! Learn more

10-Day Weather Forecast

Advertisements
Track Severe Weather on mobile